createdAt,value
2022-12-08T00:01:15.406Z,99937.66
2022-12-08T00:03:42.519Z,99922.69
2022-12-08T00:06:21.390Z,99935.50
2022-12-08T00:08:47.915Z,99932.22
2022-12-08T00:11:15.084Z,99925.59
2022-12-08T00:13:41.693Z,99920.16
2022-12-08T00:16:08.419Z,99915.53
2022-12-08T00:18:34.915Z,99910.69
2022-12-08T00:21:01.262Z,99913.78
2022-12-08T00:23:27.723Z,99914.34
2022-12-08T00:25:54.083Z,99917.75
2022-12-08T00:28:20.437Z,99911.84
2022-12-08T00:30:46.753Z,99915.88
2022-12-08T00:33:13.322Z,99913.81
2022-12-08T00:35:43.029Z,99913.34
2022-12-08T00:38:09.800Z,99906.97
2022-12-08T00:40:36.154Z,99903.16
2022-12-08T00:43:02.488Z,99909.44
2022-12-08T00:45:28.912Z,99897.91
2022-12-08T00:47:55.289Z,99897.31
2022-12-08T00:50:21.661Z,99899.22
2022-12-08T00:52:48.004Z,99901.56
2022-12-08T00:55:14.362Z,99902.53
2022-12-08T00:57:40.670Z,99901.56
2022-12-08T01:00:07.689Z,99903.97
2022-12-08T01:02:34.273Z,99908.44
2022-12-08T01:05:00.611Z,99900.34
2022-12-08T01:07:27.615Z,99895.25
2022-12-08T01:09:53.979Z,99893.19
2022-12-08T01:12:20.312Z,99894.84
2022-12-08T01:14:46.648Z,99891.16
2022-12-08T01:17:13.061Z,99887.91
2022-12-08T01:19:39.437Z,99889.22
2022-12-08T01:22:05.788Z,99888.34
2022-12-08T01:24:32.201Z,99892.09
2022-12-08T01:26:58.536Z,99897.88
2022-12-08T01:29:26.152Z,99902.22
2022-12-08T01:31:52.534Z,99900.25
2022-12-08T01:34:19.037Z,99902.16
2022-12-08T01:36:45.354Z,99902.25
2022-12-08T01:39:16.548Z,99902.75
2022-12-08T01:41:43.894Z,99894.28
2022-12-08T01:44:10.183Z,99900.41
2022-12-08T01:46:40.644Z,99894.78
2022-12-08T01:49:15.785Z,99902.59
2022-12-08T01:51:56.617Z,99896.91
2022-12-08T01:54:26.417Z,99893.41
2022-12-08T01:57:01.050Z,99896.59
2022-12-08T01:59:30.113Z,99893.94
2022-12-08T02:01:57.112Z,99895.66
2022-12-08T02:04:23.482Z,99891.19
2022-12-08T02:06:51.633Z,99880.53
2022-12-08T02:09:19.073Z,99878.94
2022-12-08T02:11:45.862Z,99873.88
2022-12-08T02:14:13.606Z,99867.78
2022-12-08T02:17:02.734Z,99864.00
2022-12-08T02:19:42.529Z,99859.25
2022-12-08T02:22:16.960Z,99862.47
2022-12-08T02:25:03.361Z,99854.47
2022-12-08T02:27:56.574Z,99857.13
2022-12-08T02:30:36.160Z,99853.16
2022-12-08T02:33:21.402Z,99848.59
2022-12-08T02:35:59.326Z,99847.00
2022-12-08T02:39:10.171Z,99844.88
2022-12-08T02:41:46.951Z,99847.56
2022-12-08T02:44:32.905Z,99852.69
2022-12-08T02:47:08.408Z,99846.53
2022-12-08T02:49:35.654Z,99847.13
2022-12-08T02:52:11.532Z,99844.44
2022-12-08T02:54:41.812Z,99843.88
2022-12-08T02:57:16.551Z,99838.00
2022-12-08T02:59:45.671Z,99836.41
2022-12-08T03:02:30.967Z,99832.09
2022-12-08T03:05:13.642Z,99833.47
2022-12-08T03:07:53.033Z,99828.41
2022-12-08T03:10:27.699Z,99823.56
2022-12-08T03:13:14.208Z,99812.84
2022-12-08T03:15:43.125Z,99804.25
2022-12-08T03:18:14.061Z,99806.31
2022-12-08T03:20:41.485Z,99796.75
2022-12-08T03:23:11.365Z,99790.28
2022-12-08T03:25:43.570Z,99787.63
2022-12-08T03:28:10.227Z,99780.59
2022-12-08T03:30:40.346Z,99784.63
2022-12-08T03:33:17.909Z,99781.56
2022-12-08T03:35:46.122Z,99779.22
2022-12-08T03:38:15.356Z,99769.78
2022-12-08T03:40:42.839Z,99771.41
2022-12-08T03:43:09.816Z,99770.34
2022-12-08T03:45:36.556Z,99770.34
2022-12-08T03:48:03.417Z,99765.00
2022-12-08T03:50:29.779Z,99767.63
2022-12-08T03:52:56.227Z,99768.19
2022-12-08T03:55:22.575Z,99759.16
2022-12-08T03:57:48.944Z,99754.63
2022-12-08T04:00:15.986Z,99747.66
2022-12-08T04:02:42.663Z,99744.66
2022-12-08T04:05:09.949Z,99742.56
2022-12-08T04:07:36.374Z,99741.47
2022-12-08T04:10:04.193Z,99742.53
2022-12-08T04:12:30.703Z,99734.81
2022-12-08T04:14:57.079Z,99736.66
2022-12-08T04:17:23.460Z,99731.59
2022-12-08T04:19:49.845Z,99730.19
2022-12-08T04:22:16.222Z,99732.63
2022-12-08T04:24:42.623Z,99730.19
2022-12-08T04:27:09.004Z,99724.28
2022-12-08T04:29:35.398Z,99729.66
2022-12-08T04:32:01.749Z,99725.88
2022-12-08T04:34:28.190Z,99735.50
2022-12-08T04:36:54.572Z,99737.09
2022-12-08T04:39:20.974Z,99731.28
2022-12-08T04:41:47.332Z,99722.13
2022-12-08T04:44:13.713Z,99718.91
2022-12-08T04:46:43.392Z,99720.47
2022-12-08T04:49:10.336Z,99721.75
2022-12-08T04:51:36.704Z,99721.00
2022-12-08T04:54:03.255Z,99720.41
2022-12-08T04:56:29.637Z,99710.25
2022-12-08T04:58:56.023Z,99719.94
2022-12-08T05:01:22.409Z,99709.72
2022-12-08T05:03:48.815Z,99708.72
2022-12-08T05:06:15.220Z,99707.63
2022-12-08T05:08:43.156Z,99710.56
2022-12-08T05:11:12.060Z,99700.16
2022-12-08T05:13:38.548Z,99704.41
2022-12-08T05:16:13.903Z,99702.28
2022-12-08T05:18:41.710Z,99703.34
2022-12-08T05:21:08.813Z,99696.66
2022-12-08T05:23:35.600Z,99695.06
2022-12-08T05:26:02.082Z,99694.84
2022-12-08T05:28:44.321Z,99694.31
2022-12-08T05:31:12.868Z,99677.69
2022-12-08T05:33:39.811Z,99688.97
2022-12-08T05:36:06.712Z,99687.91
2022-12-08T05:38:33.100Z,99677.72
2022-12-08T05:40:59.478Z,99671.53
2022-12-08T05:43:26.724Z,99672.88
2022-12-08T05:45:53.173Z,99679.56
2022-12-08T05:48:19.662Z,99670.47
2022-12-08T05:50:47.772Z,99673.47
2022-12-08T05:53:14.996Z,99665.91
2022-12-08T05:56:04.954Z,99671.81
2022-12-08T05:58:31.300Z,99675.81
2022-12-08T06:00:57.694Z,99673.97
2022-12-08T06:03:24.099Z,99670.69
2022-12-08T06:05:50.524Z,99671.50
2022-12-08T06:08:17.314Z,99668.06
2022-12-08T06:10:45.405Z,99662.66
2022-12-08T06:16:41.265Z,99668.56
2022-12-08T06:19:08.250Z,99662.97
2022-12-08T06:21:34.654Z,99664.28
2022-12-08T06:24:01.043Z,99661.84
2022-12-08T06:26:27.697Z,99649.81
2022-12-08T06:28:54.342Z,99653.81
2022-12-08T06:31:26.318Z,99656.25
2022-12-08T06:33:54.283Z,99663.72
2022-12-08T06:36:23.705Z,99661.84
2022-12-08T06:38:50.172Z,99659.41
2022-12-08T06:41:17.011Z,99654.34
2022-12-08T06:43:44.165Z,99661.28
2022-12-08T06:46:13.945Z,99657.47
2022-12-08T06:48:40.627Z,99656.19
2022-12-08T06:51:08.093Z,99659.72
2022-12-08T06:53:34.604Z,99658.38
2022-12-08T06:56:00.971Z,99658.94
2022-12-08T06:58:27.443Z,99660.03
2022-12-08T07:00:53.907Z,99656.25
2022-12-08T07:03:20.454Z,99671.81
2022-12-08T07:05:46.820Z,99664.34
2022-12-08T07:08:13.340Z,99668.34
2022-12-08T07:10:39.791Z,99666.19
2022-12-08T07:13:06.230Z,99674.47
2022-12-08T07:15:32.680Z,99665.94
2022-12-08T07:18:00.229Z,99675.59
2022-12-08T07:20:27.210Z,99677.75
2022-12-08T07:22:54.023Z,99680.19
2022-12-08T07:25:21.078Z,99674.25
2022-12-08T07:27:47.487Z,99675.06
2022-12-08T07:30:14.149Z,99677.22
2022-12-08T07:32:40.812Z,99677.22
2022-12-08T07:35:08.396Z,99681.78
2022-12-08T07:37:41.304Z,99678.28
2022-12-08T07:40:09.328Z,99678.25
2022-12-08T07:42:35.893Z,99684.13
2022-12-08T07:45:02.369Z,99676.13
2022-12-08T07:47:28.784Z,99677.19
2022-12-08T07:49:55.155Z,99678.56
2022-12-08T07:52:21.771Z,99684.19
2022-12-08T07:54:48.141Z,99685.25
2022-12-08T07:57:14.820Z,99678.81
2022-12-08T07:59:41.197Z,99684.69
2022-12-08T08:02:24.143Z,99677.75
2022-12-08T08:04:51.907Z,99679.88
2022-12-08T08:07:18.386Z,99680.41
2022-12-08T08:09:44.758Z,99675.84
2022-12-08T08:12:30.347Z,99673.16
2022-12-08T08:14:57.496Z,99676.13
2022-12-08T08:17:24.100Z,99677.72
2022-12-08T08:19:50.598Z,99682.59
2022-12-08T08:22:16.984Z,99677.78
2022-12-08T08:24:45.170Z,99674.84
2022-12-08T08:27:11.950Z,99683.16
2022-12-08T08:29:38.351Z,99682.09
2022-12-08T08:32:04.825Z,99681.28
2022-12-08T08:34:31.253Z,99693.09
2022-12-08T08:36:57.700Z,99689.88
2022-12-08T08:39:24.111Z,99696.59
2022-12-08T08:41:50.495Z,99692.28
2022-12-08T08:44:16.926Z,99687.97
2022-12-08T08:46:43.417Z,99686.09
2022-12-08T08:49:09.906Z,99685.34
2022-12-08T08:51:36.506Z,99683.72
2022-12-08T08:54:03.015Z,99689.63
2022-12-08T08:56:29.405Z,99692.56
2022-12-08T08:58:55.892Z,99685.59
2022-12-08T09:01:27.456Z,99686.41
2022-12-08T09:03:55.367Z,99687.22
2022-12-08T09:06:22.899Z,99692.31
2022-12-08T09:08:49.886Z,99689.38
2022-12-08T09:11:17.224Z,99697.16
2022-12-08T09:13:43.705Z,99697.72
2022-12-08T09:16:12.083Z,99693.41
2022-12-08T09:18:38.611Z,99697.97
2022-12-08T09:21:10.727Z,99698.25
2022-12-08T09:23:37.086Z,99699.88
2022-12-08T09:26:04.135Z,99705.22
2022-12-08T09:28:31.338Z,99705.75
2022-12-08T09:30:57.817Z,99703.63
2022-12-08T09:33:24.378Z,99704.66
2022-12-08T09:35:50.738Z,99704.69
2022-12-08T09:38:17.190Z,99709.53
2022-12-08T09:40:51.996Z,99708.44
2022-12-08T09:43:38.547Z,99707.91
2022-12-08T09:46:09.353Z,99704.16
2022-12-08T09:48:39.893Z,99705.75
2022-12-08T09:51:08.317Z,99715.69
2022-12-08T09:53:36.846Z,99713.28
2022-12-08T09:56:08.925Z,99718.38
2022-12-08T09:58:52.498Z,99712.22
2022-12-08T10:01:21.184Z,99709.53
2022-12-08T10:03:47.832Z,99717.03
2022-12-08T10:06:38.679Z,99710.06
2022-12-08T10:09:22.996Z,99720.28
2022-12-08T10:12:13.795Z,99713.81
2022-12-08T10:14:43.977Z,99712.19
2022-12-08T10:17:29.709Z,99708.44
2022-12-08T10:20:06.793Z,99705.50
2022-12-08T10:22:37.579Z,99705.75
2022-12-08T10:25:06.357Z,99700.94
2022-12-08T10:27:36.675Z,99695.03
2022-12-08T10:30:11.540Z,99686.94
2022-12-08T10:32:38.097Z,99692.31
2022-12-08T10:35:16.657Z,99691.72
2022-12-08T10:37:56.073Z,99690.34
2022-12-08T10:40:23.033Z,99683.31
2022-12-08T10:42:53.875Z,99678.13
2022-12-08T10:45:30.292Z,99676.22
2022-12-08T10:48:03.698Z,99682.41
2022-12-08T10:50:41.162Z,99682.69
2022-12-08T10:53:07.497Z,99676.69
2022-12-08T10:55:45.740Z,99678.69
2022-12-08T10:58:35.443Z,99679.78
2022-12-08T11:01:07.032Z,99676.56
2022-12-08T11:03:38.741Z,99666.81
2022-12-08T11:06:21.826Z,99676.53
2022-12-08T11:08:51.659Z,99677.06
2022-12-08T11:11:20.300Z,99675.44
2022-12-08T11:13:50.824Z,99681.66
2022-12-08T11:16:18.275Z,99685.72
2022-12-08T11:18:54.768Z,99675.22
2022-12-08T11:21:34.257Z,99673.38
2022-12-08T11:24:18.470Z,99677.66
2022-12-08T11:27:04.769Z,99679.00
2022-12-08T11:29:33.684Z,99676.34
2022-12-08T11:32:02.134Z,99672.31
2022-12-08T11:34:42.856Z,99666.94
2022-12-08T11:37:17.404Z,99673.09
2022-12-08T11:39:49.961Z,99670.47
2022-12-08T11:42:20.340Z,99667.72
2022-12-08T11:44:58.209Z,99664.75
2022-12-08T11:47:28.572Z,99662.63
2022-12-08T11:50:16.618Z,99652.13
2022-12-08T11:52:49.638Z,99658.84
2022-12-08T11:55:40.706Z,99663.72
2022-12-08T11:58:17.988Z,99662.56
2022-12-08T12:00:44.712Z,99660.44
2022-12-08T12:03:20.260Z,99657.81
2022-12-08T12:08:54.624Z,99652.22
2022-12-08T12:11:39.758Z,99660.63
2022-12-08T12:14:32.364Z,99654.94
2022-12-08T12:17:07.424Z,99642.56
2022-12-08T12:19:38.802Z,99650.31
2022-12-08T12:22:17.640Z,99662.69
2022-12-08T12:24:47.434Z,99650.84
2022-12-08T12:27:13.760Z,99659.47
2022-12-08T12:29:52.266Z,99654.09
2022-12-08T12:32:23.111Z,99656.25
2022-12-08T12:34:57.026Z,99657.34
2022-12-08T12:37:35.010Z,99663.25
2022-12-08T12:40:18.348Z,99673.50
2022-12-08T12:42:48.646Z,99665.41
2022-12-08T12:45:14.995Z,99668.63
2022-12-08T12:47:52.388Z,99667.53
2022-12-08T12:50:34.236Z,99660.56
2022-12-08T12:53:06.895Z,99669.72
2022-12-08T12:56:04.045Z,99659.53
2022-12-08T12:58:30.437Z,99662.75
2022-12-08T13:01:12.035Z,99661.38
2022-12-08T13:03:42.790Z,99668.06
2022-12-08T13:06:14.607Z,99658.34
2022-12-08T13:08:51.141Z,99666.91
2022-12-08T13:11:17.890Z,99663.44
2022-12-08T13:13:57.559Z,99665.34
2022-12-08T13:16:32.099Z,99661.59
2022-12-08T13:19:00.741Z,99661.13
2022-12-08T13:21:34.701Z,99661.66
2022-12-08T13:24:10.119Z,99654.66
2022-12-08T13:27:03.738Z,99654.09
2022-12-08T13:29:35.344Z,99661.31
2022-12-08T13:32:22.956Z,99658.13
2022-12-08T13:34:57.594Z,99654.16
2022-12-08T13:37:30.607Z,99658.97
2022-12-08T13:40:20.617Z,99655.22
2022-12-08T13:43:06.133Z,99657.66
2022-12-08T13:46:20.218Z,99656.88
2022-12-08T13:49:18.518Z,99652.56
2022-12-08T13:57:26.336Z,99658.78
2022-12-08T13:59:52.924Z,99659.56
2022-12-08T14:02:25.384Z,99662.81
2022-12-08T14:07:40.904Z,99668.16
2022-12-08T14:10:10.329Z,99671.41
2022-12-08T14:12:37.368Z,99675.41
2022-12-08T14:15:06.570Z,99678.91
2022-12-08T14:17:34.781Z,99671.41
2022-12-08T14:20:22.317Z,99668.47
2022-12-08T14:22:48.975Z,99676.50
2022-12-08T14:25:16.803Z,99676.75
2022-12-08T14:27:43.886Z,99668.72
2022-12-08T14:30:13.457Z,99665.50
2022-12-08T14:32:50.755Z,99664.97
2022-12-08T14:35:30.626Z,99662.00
2022-12-08T14:38:00.090Z,99662.53
2022-12-08T14:40:29.585Z,99664.69
2022-12-08T14:43:08.289Z,99664.13
2022-12-08T14:46:00.195Z,99667.06
2022-12-08T14:48:35.683Z,99662.78
2022-12-08T14:51:20.466Z,99671.06
2022-12-08T14:54:08.289Z,99670.53
2022-12-08T14:56:46.968Z,99674.53
2022-12-08T14:59:15.378Z,99671.81
2022-12-08T15:01:43.823Z,99673.16
2022-12-08T15:04:22.870Z,99672.88
2022-12-08T15:07:06.447Z,99675.47
2022-12-08T15:09:38.180Z,99673.06
2022-12-08T15:12:24.710Z,99674.38
2022-12-08T15:15:14.273Z,99668.44
2022-12-08T15:17:43.700Z,99679.16
2022-12-08T15:20:44.491Z,99674.81
2022-12-08T15:23:39.017Z,99673.72
2022-12-08T15:26:05.786Z,99671.59
2022-12-08T15:28:32.327Z,99667.78
2022-12-08T15:30:59.209Z,99675.53
2022-12-08T15:33:26.353Z,99677.19
2022-12-08T15:35:53.536Z,99675.09
2022-12-08T15:38:26.753Z,99674.31
2022-12-08T15:40:54.221Z,99675.13
2022-12-08T15:43:21.933Z,99683.47
2022-12-08T15:45:58.568Z,99682.34
2022-12-08T15:48:29.696Z,99693.78
2022-12-08T15:50:56.676Z,99689.25
2022-12-08T15:53:23.551Z,99689.78
2022-12-08T15:56:19.047Z,99688.59
2022-12-08T15:58:55.109Z,99691.78
2022-12-08T16:01:23.362Z,99696.53
2022-12-08T16:09:30.668Z,99691.03
2022-12-08T16:12:06.405Z,99695.81
2022-12-08T16:15:39.788Z,99697.66
2022-12-08T16:17:20.714Z,99691.25
2022-12-08T16:19:47.013Z,99695.81
2022-12-08T16:25:18.189Z,99699.44
2022-12-08T16:28:08.394Z,99701.56
2022-12-08T16:30:31.527Z,99706.28
2022-12-08T16:32:57.970Z,99708.03
2022-12-08T16:35:24.286Z,99710.16
2022-12-08T16:37:51.008Z,99714.69
2022-12-08T16:40:17.415Z,99723.00
2022-12-08T16:42:43.975Z,99724.78
2022-12-08T16:45:13.777Z,99726.09
2022-12-08T16:48:06.370Z,99729.72
2022-12-08T16:50:34.831Z,99725.47
2022-12-08T16:53:06.699Z,99723.06
2022-12-08T16:55:34.528Z,99716.09
2022-12-08T16:58:01.306Z,99721.44
2022-12-08T17:00:29.628Z,99720.91
2022-12-08T17:02:56.364Z,99722.91
2022-12-08T17:05:25.041Z,99730.31
2022-12-08T17:07:53.098Z,99717.09
2022-12-08T17:10:25.181Z,99720.19
2022-12-08T17:12:52.171Z,99722.13
2022-12-08T17:15:21.598Z,99726.28
2022-12-08T17:17:48.507Z,99726.50
2022-12-08T17:20:17.464Z,99732.50
2022-12-08T17:22:44.232Z,99730.38
2022-12-08T17:25:11.145Z,99732.63
2022-12-08T17:27:38.941Z,99731.69
2022-12-08T17:30:07.247Z,99727.16
2022-12-08T17:32:33.887Z,99737.34
2022-12-08T17:35:00.315Z,99733.44
2022-12-08T17:37:26.690Z,99733.25
2022-12-08T17:39:53.043Z,99728.84
2022-12-08T17:42:19.417Z,99729.06
2022-12-08T17:44:45.778Z,99729.81
2022-12-08T17:47:12.167Z,99736.94
2022-12-08T17:49:38.761Z,99743.88
2022-12-08T17:52:05.666Z,99735.50
2022-12-08T17:54:33.003Z,99729.13
2022-12-08T17:57:00.149Z,99733.56
2022-12-08T17:59:28.021Z,99739.66
2022-12-08T18:01:56.894Z,99740.53
2022-12-08T18:04:25.335Z,99733.25
2022-12-08T18:06:52.902Z,99729.72
2022-12-08T18:09:23.072Z,99729.72
2022-12-08T18:11:49.466Z,99729.91
2022-12-08T18:14:16.375Z,99740.44
2022-12-08T18:16:47.383Z,99730.53
2022-12-08T18:19:14.900Z,99728.31
2022-12-08T18:21:42.245Z,99731.03
2022-12-08T18:24:15.375Z,99735.94
2022-12-08T18:26:41.833Z,99732.94
2022-12-08T18:29:08.174Z,99726.19
2022-12-08T18:31:34.547Z,99726.59
2022-12-08T18:34:00.873Z,99734.69
2022-12-08T18:36:27.238Z,99729.22
2022-12-08T18:38:53.914Z,99730.34
2022-12-08T18:41:23.467Z,99727.81
2022-12-08T18:43:50.008Z,99728.59
2022-12-08T18:46:16.473Z,99739.31
2022-12-08T18:48:45.892Z,99745.38
2022-12-08T18:51:18.268Z,99738.59
2022-12-08T18:53:45.327Z,99748.63
2022-12-08T18:56:25.776Z,99734.16
2022-12-08T18:58:52.958Z,99743.09
2022-12-08T19:01:19.494Z,99734.97
2022-12-08T19:04:12.050Z,99740.31
2022-12-08T19:06:32.707Z,99747.19
2022-12-08T19:08:59.062Z,99741.63
2022-12-08T19:11:27.866Z,99739.59
2022-12-08T19:13:54.942Z,99747.75
2022-12-08T19:16:22.442Z,99741.53
2022-12-08T19:18:49.030Z,99744.75
2022-12-08T19:21:15.465Z,99749.09
2022-12-08T19:23:42.342Z,99747.09
2022-12-08T19:26:08.830Z,99747.47
2022-12-08T19:28:35.242Z,99752.25
2022-12-08T19:31:09.737Z,99750.53
2022-12-08T19:33:36.762Z,99751.53
2022-12-08T19:36:07.934Z,99759.47
2022-12-08T19:38:34.423Z,99755.00
2022-12-08T19:41:01.264Z,99750.56
2022-12-08T19:43:27.677Z,99748.59
2022-12-08T19:45:54.613Z,99744.56
2022-12-08T19:48:21.045Z,99747.16
2022-12-08T19:50:47.485Z,99745.19
2022-12-08T19:53:15.176Z,99746.06
2022-12-08T19:55:43.308Z,99745.00
2022-12-08T19:58:10.490Z,99740.06
2022-12-08T20:00:38.623Z,99743.81
2022-12-08T20:03:05.757Z,99741.31
2022-12-08T20:05:33.682Z,99744.16
2022-12-08T20:08:00.104Z,99742.34
2022-12-08T20:10:29.620Z,99746.06
2022-12-08T20:12:56.632Z,99740.22
2022-12-08T20:15:23.064Z,99752.19
2022-12-08T20:17:49.461Z,99750.56
2022-12-08T20:20:16.104Z,99749.84
2022-12-08T20:22:42.577Z,99748.91
2022-12-08T20:25:12.715Z,99747.16
2022-12-08T20:27:39.685Z,99745.78
2022-12-08T20:30:09.469Z,99755.28
2022-12-08T20:32:38.353Z,99758.03
2022-12-08T20:35:05.277Z,99761.22
2022-12-08T20:37:31.927Z,99766.75
2022-12-08T20:39:58.380Z,99765.63
2022-12-08T20:42:24.804Z,99764.34
2022-12-08T20:44:51.147Z,99767.47
2022-12-08T20:47:18.033Z,99770.47
2022-12-08T20:49:44.754Z,99776.44
2022-12-08T20:52:11.127Z,99781.69
2022-12-08T20:54:37.652Z,99780.88
2022-12-08T20:57:04.133Z,99784.31
2022-12-08T20:59:30.522Z,99773.41
2022-12-08T21:01:57.552Z,99782.06
2022-12-08T21:04:24.173Z,99777.75
2022-12-08T21:06:50.897Z,99778.91
2022-12-08T21:09:17.678Z,99780.44
2022-12-08T21:11:44.479Z,99775.25
2022-12-08T21:14:11.116Z,99781.31
2022-12-08T21:16:38.822Z,99783.03
2022-12-08T21:19:06.237Z,99781.31
2022-12-08T21:21:32.982Z,99784.16
2022-12-08T21:23:59.413Z,99783.50
2022-12-08T21:26:25.834Z,99776.38
2022-12-08T21:28:53.422Z,99770.72
2022-12-08T21:31:20.436Z,99781.06
2022-12-08T21:33:47.906Z,99781.06
2022-12-08T21:36:17.756Z,99780.63
2022-12-08T21:38:44.630Z,99776.63
2022-12-08T21:41:14.853Z,99772.84
2022-12-08T21:43:42.462Z,99782.72
2022-12-08T21:46:16.035Z,99778.94
2022-12-08T21:48:42.707Z,99773.13
2022-12-08T21:51:09.281Z,99773.31
2022-12-08T21:53:35.801Z,99767.84
2022-12-08T21:56:02.281Z,99760.53
2022-12-08T21:58:28.906Z,99764.59
2022-12-08T22:00:55.577Z,99768.63
2022-12-08T22:03:22.117Z,99764.19
2022-12-08T22:05:48.726Z,99770.47
2022-12-08T22:08:15.342Z,99769.91
2022-12-08T22:10:46.967Z,99768.53
2022-12-08T22:13:13.565Z,99771.59
2022-12-08T22:15:40.238Z,99765.38
2022-12-08T22:18:06.948Z,99772.81
2022-12-08T22:20:33.421Z,99773.28
2022-12-08T22:23:00.152Z,99772.00
2022-12-08T22:25:26.846Z,99776.56
2022-12-08T22:27:53.563Z,99772.28
2022-12-08T22:30:20.101Z,99770.19
2022-12-08T22:32:46.721Z,99766.69
2022-12-08T22:35:13.307Z,99761.53
2022-12-08T22:37:39.866Z,99759.16
2022-12-08T22:40:07.531Z,99748.00
2022-12-08T22:42:34.306Z,99752.31
2022-12-08T22:45:00.822Z,99746.97
2022-12-08T22:47:27.436Z,99752.78
2022-12-08T22:49:53.978Z,99749.06
2022-12-08T22:52:20.502Z,99750.19
2022-12-08T22:54:47.334Z,99743.47
2022-12-08T22:57:13.739Z,99754.38
2022-12-08T22:59:40.078Z,99748.53
2022-12-08T23:02:07.861Z,99749.69
2022-12-08T23:04:35.718Z,99752.03
2022-12-08T23:07:02.781Z,99758.41
2022-12-08T23:09:29.441Z,99762.84
2022-12-08T23:11:55.879Z,99758.09
2022-12-08T23:14:22.299Z,99767.69
2022-12-08T23:16:48.799Z,99767.59
2022-12-08T23:19:15.304Z,99758.31
2022-12-08T23:21:41.749Z,99765.22
2022-12-08T23:24:08.141Z,99759.69
2022-12-08T23:26:34.564Z,99757.06
2022-12-08T23:29:01.732Z,99763.78
2022-12-08T23:31:28.550Z,99766.28
2022-12-08T23:33:54.970Z,99764.50
2022-12-08T23:36:23.490Z,99757.56
2022-12-08T23:38:49.861Z,99756.81
2022-12-08T23:41:16.575Z,99748.09
2022-12-08T23:43:46.277Z,99751.38
2022-12-08T23:46:14.398Z,99751.31
2022-12-08T23:48:41.184Z,99754.41
2022-12-08T23:51:08.318Z,99754.84
2022-12-08T23:53:34.880Z,99754.91
2022-12-08T23:56:13.292Z,99748.53
2022-12-08T23:58:41.084Z,99748.09
